»·PEaware :: WAT169 KLAS-KDEN

WAT169 :: KLAS-KDEN

FLIGHT INFORMATION

Flight Status: Arrived
Operator: Unknown
More flights by this operator :: More flights under this callsign
Pilot: Marty P. (27464)
Aircraft: BOEING 737-800
(B738)
More flights by this aircraft type
Origin: KLAS McCarran Intl
United States
Destination: KDEN Denver Intl
United States
More flights between these airports :: More routes between these airports
Route: TRALR9 TRALR NICLE BUMMP SSKII1
File this flight plan on PilotEdge
Remarks:
Altitude:
(Current/Filed)
39,000ft
Speed:
(Current/Filed)
470kts
Departed: 11-May-20 09:43 AM
Arrived: 11-May-20 11:08 AM
Distance/Time
Traveled:
545nm/1:25
Distance/Time
To Go:
Arrived

Flight Plot

Page will automatically refresh every two minutes.


Map Options




Map Legend


Flown Route
Filed Route
Departure Airport
Arrival Airport
Navaid (VOR, NDB)
Fix

Horizontal Profiles

Position Reports

Time Latitude Longitude Heading Altitude Ground
Speed
11-May-20 09:23 36.081009 -115.147654 61 2191ft 0kts
11-May-20 09:24 36.081009 -115.147654 61 2191ft 0kts
11-May-20 09:25 36.081009 -115.147654 61 2191ft 0kts
11-May-20 09:26 36.081009 -115.147654 61 2191ft 0kts
11-May-20 09:27 36.081009 -115.147654 61 2191ft 0kts
11-May-20 09:28 36.081009 -115.147654 61 2191ft 0kts
11-May-20 09:29 36.080925 -115.147845 61 2191ft 2kts
11-May-20 09:30 36.081010 -115.148488 151 2191ft 1kts
11-May-20 09:31 36.081085 -115.148529 156 2191ft 0kts
11-May-20 09:32 36.081085 -115.148529 156 2191ft 0kts
11-May-20 09:33 36.078696 -115.147128 138 2191ft 14kts
11-May-20 09:34 36.078263 -115.142259 89 2191ft 18kts
11-May-20 09:35 36.078270 -115.136449 89 2191ft 14kts
11-May-20 09:36 36.078273 -115.131372 90 2191ft 17kts
11-May-20 09:37 36.078277 -115.124647 89 2191ft 19kts
11-May-20 09:38 36.077430 -115.121471 142 2191ft 0kts
11-May-20 09:39 36.077430 -115.121472 142 2191ft 0kts
11-May-20 09:40 36.077430 -115.121471 142 2191ft 0kts
11-May-20 09:41 36.077369 -115.121419 147 2191ft 4kts
11-May-20 09:42 36.076444 -115.130990 270 2191ft 123kts
11-May-20 09:43 36.076732 -115.192274 264 3909ft 206kts
11-May-20 09:44 36.047136 -115.265678 208 6018ft 266kts
11-May-20 09:45 35.975997 -115.291537 184 8987ft 267kts
11-May-20 09:46 35.901610 -115.269543 151 11228ft 318kts
11-May-20 09:47 35.868109 -115.158887 90 12666ft 394kts
11-May-20 09:48 35.887145 -115.025152 65 15224ft 415kts
11-May-20 09:49 35.945903 -114.899087 61 17386ft 432kts
11-May-20 09:50 35.997133 -114.763591 65 19459ft 443kts
11-May-20 09:51 36.049540 -114.623391 64 21333ft 456kts
11-May-20 09:52 36.103054 -114.483305 64 23027ft 467kts
11-May-20 09:53 36.158979 -114.336908 66 24603ft 477kts
11-May-20 09:54 36.196262 -114.177731 78 26100ft 485kts
11-May-20 09:55 36.220231 -114.012126 80 27479ft 492kts
11-May-20 09:56 36.241046 -113.845683 80 29319ft 485kts
11-May-20 09:57 36.260640 -113.681290 80 30922ft 482kts
11-May-20 09:58 36.279742 -113.517465 80 32412ft 479kts
11-May-20 09:59 36.298405 -113.354973 79 33806ft 476kts
11-May-20 10:00 36.325978 -113.199967 63 34935ft 469kts
11-May-20 10:01 36.385753 -113.059408 57 36072ft 464kts
11-May-20 10:02 36.447600 -112.919779 57 37087ft 464kts
11-May-20 10:03 36.509331 -112.779951 56 38229ft 460kts
11-May-20 10:04 36.569560 -112.643007 56 39165ft 460kts
11-May-20 10:05 36.632014 -112.500564 56 39151ft 480kts
11-May-20 10:06 36.695891 -112.354030 56 39146ft 483kts
11-May-20 10:07 36.758987 -112.208777 57 39145ft 482kts
11-May-20 10:08 36.818748 -112.070581 57 39146ft 483kts
11-May-20 10:09 36.882245 -111.923065 57 39115ft 484kts
11-May-20 10:10 36.945684 -111.774993 57 39091ft 484kts
11-May-20 10:11 37.009043 -111.626434 57 39091ft 485kts
11-May-20 10:12 37.072402 -111.477188 57 39069ft 486kts
11-May-20 10:13 37.133081 -111.333608 58 39071ft 487kts
11-May-20 10:14 37.196204 -111.183705 58 39099ft 489kts
11-May-20 10:15 37.259193 -111.033316 58 39136ft 490kts
11-May-20 10:16 37.321811 -110.883076 58 39177ft 492kts
11-May-20 10:17 37.384977 -110.730791 59 39159ft 495kts
11-May-20 10:18 37.448103 -110.577852 59 39115ft 494kts
11-May-20 10:19 37.511418 -110.423724 59 39215ft 497kts
11-May-20 10:21 37.572867 -110.273520 60 39247ft 499kts
11-May-20 10:22 37.636188 -110.118011 60 39246ft 499kts
11-May-20 10:23 37.698765 -109.963479 60 39228ft 501kts
11-May-20 10:24 37.761636 -109.807418 60 39247ft 501kts
11-May-20 10:25 37.824416 -109.650804 60 39221ft 501kts
11-May-20 10:26 37.886865 -109.494233 60 39193ft 503kts
11-May-20 10:27 37.947661 -109.341040 61 39172ft 503kts
11-May-20 10:28 38.010028 -109.183340 61 39174ft 504kts
11-May-20 10:29 38.072385 -109.024689 61 39208ft 505kts
11-May-20 10:30 38.129928 -108.874112 63 39229ft 507kts
11-May-20 10:31 38.190363 -108.712298 62 39228ft 508kts
11-May-20 10:32 38.252698 -108.551227 61 39226ft 509kts
11-May-20 10:33 38.315332 -108.390132 61 39195ft 510kts
11-May-20 10:34 38.374777 -108.237023 62 39164ft 510kts
11-May-20 10:35 38.429827 -108.094573 62 39155ft 510kts
11-May-20 10:36 38.481334 -107.959416 63 39164ft 511kts
11-May-20 10:37 38.546461 -107.785170 63 39164ft 513kts
11-May-20 10:38 38.600724 -107.640638 62 39164ft 512kts
11-May-20 10:38 38.658855 -107.485426 62 39164ft 512kts
11-May-20 10:40 38.727698 -107.302747 62 39163ft 513kts
11-May-20 10:41 38.787411 -107.144629 62 39164ft 513kts
11-May-20 10:42 38.846443 -106.987529 62 39176ft 512kts
11-May-20 10:43 38.905904 -106.828453 62 39246ft 512kts
11-May-20 10:43 38.953920 -106.699386 62 39246ft 510kts
11-May-20 10:45 39.020707 -106.517678 63 36506ft 504kts
11-May-20 10:45 39.069493 -106.382818 63 34113ft 502kts
11-May-20 10:47 39.128566 -106.220488 63 30718ft 503kts
11-May-20 10:47 39.175309 -106.091224 64 28295ft 490kts
11-May-20 10:48 39.227385 -105.946490 64 25806ft 473kts
11-May-20 10:49 39.278720 -105.803726 64 23373ft 455kts
11-May-20 10:50 39.329978 -105.660656 64 21004ft 436kts
11-May-20 10:51 39.378044 -105.528229 63 19363ft 402kts
11-May-20 10:52 39.410748 -105.400280 81 18608ft 348kts
11-May-20 10:53 39.417304 -105.269989 89 16264ft 341kts
11-May-20 10:54 39.418363 -105.146318 90 14486ft 342kts
11-May-20 10:55 39.418897 -105.025939 90 13344ft 314kts
11-May-20 10:56 39.420635 -104.923048 84 12804ft 275kts
11-May-20 10:57 39.429666 -104.823024 81 11668ft 279kts
11-May-20 10:58 39.453160 -104.737407 67 10296ft 242kts
11-May-20 10:59 39.506367 -104.696852 17 7961ft 222kts
11-May-20 11:00 39.559659 -104.675350 17 7989ft 197kts
11-May-20 11:01 39.611607 -104.654158 18 7999ft 197kts
11-May-20 11:02 39.665578 -104.644022 1 8009ft 198kts
11-May-20 11:03 39.716086 -104.643159 359 7753ft 179kts
11-May-20 11:04 39.763586 -104.642546 357 6819ft 169kts
11-May-20 11:05 39.808234 -104.641952 358 5983ft 162kts
11-May-20 11:06 39.848558 -104.641535 359 5444ft 67kts
11-May-20 11:07 39.853919 -104.643444 344 5444ft 12kts
11-May-20 11:08 39.856655 -104.645430 270 5444ft 14kts
11-May-20 11:09 39.856689 -104.650309 270 5444ft 14kts
11-May-20 11:10 39.856732 -104.656357 270 5444ft 18kts
11-May-20 11:11 39.856782 -104.663005 270 5444ft 16kts
11-May-20 11:12 39.855862 -104.667090 270 5444ft 21kts
11-May-20 11:13 39.855262 -104.670512 192 5444ft 0kts
11-May-20 11:14 39.854500 -104.670675 187 5444ft 1kts

Navigation Log

Ident Type
Flight plan parsing failed, navigation log unavailable